sensor_id;sensor_type;location;lat;lon;timestamp;P1;durP1;ratioP1;P2;durP2;ratioP2
46489;SDS011;32204;49.160;8.580;2023-02-26T00:01:28;4.50;;;1.98;;
46489;SDS011;32204;49.160;8.580;2023-02-26T00:03:56;3.38;;;2.13;;
46489;SDS011;32204;49.160;8.580;2023-02-26T00:06:23;4.63;;;1.75;;
46489;SDS011;32204;49.160;8.580;2023-02-26T00:08:50;6.28;;;2.20;;
46489;SDS011;32204;49.160;8.580;2023-02-26T00:11:16;2.90;;;2.00;;
46489;SDS011;32204;49.160;8.580;2023-02-26T00:13:42;3.97;;;2.42;;
46489;SDS011;32204;49.160;8.580;2023-02-26T00:16:12;5.33;;;2.43;;
46489;SDS011;32204;49.160;8.580;2023-02-26T00:18:49;4.95;;;2.20;;
46489;SDS011;32204;49.160;8.580;2023-02-26T00:21:18;6.95;;;2.50;;
46489;SDS011;32204;49.160;8.580;2023-02-26T00:23:45;4.15;;;2.20;;
46489;SDS011;32204;49.160;8.580;2023-02-26T00:26:10;5.70;;;2.03;;
46489;SDS011;32204;49.160;8.580;2023-02-26T00:28:36;2.70;;;1.90;;
46489;SDS011;32204;49.160;8.580;2023-02-26T00:31:02;3.75;;;2.00;;
46489;SDS011;32204;49.160;8.580;2023-02-26T00:33:28;4.55;;;2.40;;
46489;SDS011;32204;49.160;8.580;2023-02-26T00:35:55;3.85;;;1.98;;
46489;SDS011;32204;49.160;8.580;2023-02-26T00:38:28;3.67;;;2.55;;
46489;SDS011;32204;49.160;8.580;2023-02-26T00:40:57;5.65;;;2.35;;
46489;SDS011;32204;49.160;8.580;2023-02-26T00:43:23;3.85;;;2.35;;
46489;SDS011;32204;49.160;8.580;2023-02-26T00:51:12;5.45;;;2.55;;
46489;SDS011;32204;49.160;8.580;2023-02-26T00:54:06;4.28;;;2.60;;
46489;SDS011;32204;49.160;8.580;2023-02-26T00:56:54;4.28;;;2.83;;
46489;SDS011;32204;49.160;8.580;2023-02-26T00:59:21;3.97;;;2.35;;
46489;SDS011;32204;49.160;8.580;2023-02-26T01:01:48;6.78;;;2.95;;
46489;SDS011;32204;49.160;8.580;2023-02-26T01:04:15;8.15;;;2.80;;
46489;SDS011;32204;49.160;8.580;2023-02-26T01:06:43;3.42;;;2.40;;
46489;SDS011;32204;49.160;8.580;2023-02-26T01:09:23;4.82;;;2.20;;
46489;SDS011;32204;49.160;8.580;2023-02-26T01:11:52;4.43;;;2.05;;
46489;SDS011;32204;49.160;8.580;2023-02-26T01:14:19;5.10;;;2.47;;
46489;SDS011;32204;49.160;8.580;2023-02-26T01:16:56;3.35;;;2.47;;
46489;SDS011;32204;49.160;8.580;2023-02-26T01:22:24;7.00;;;2.40;;
46489;SDS011;32204;49.160;8.580;2023-02-26T01:25:12;3.47;;;2.63;;
46489;SDS011;32204;49.160;8.580;2023-02-26T01:27:42;4.28;;;2.30;;
46489;SDS011;32204;49.160;8.580;2023-02-26T01:30:07;5.78;;;2.70;;
46489;SDS011;32204;49.160;8.580;2023-02-26T01:32:41;4.68;;;2.40;;
46489;SDS011;32204;49.160;8.580;2023-02-26T01:35:28;5.82;;;2.85;;
46489;SDS011;32204;49.160;8.580;2023-02-26T01:38:03;6.05;;;2.30;;
46489;SDS011;32204;49.160;8.580;2023-02-26T01:46:49;3.53;;;2.17;;
46489;SDS011;32204;49.160;8.580;2023-02-26T01:49:19;4.60;;;2.63;;
46489;SDS011;32204;49.160;8.580;2023-02-26T01:51:47;6.88;;;2.80;;
46489;SDS011;32204;49.160;8.580;2023-02-26T01:54:15;1.77;;;1.67;;
46489;SDS011;32204;49.160;8.580;2023-02-26T01:56:44;5.32;;;2.70;;
46489;SDS011;32204;49.160;8.580;2023-02-26T01:59:13;4.68;;;2.50;;
46489;SDS011;32204;49.160;8.580;2023-02-26T02:01:42;3.97;;;2.30;;
46489;SDS011;32204;49.160;8.580;2023-02-26T02:04:12;7.30;;;2.25;;
46489;SDS011;32204;49.160;8.580;2023-02-26T02:06:39;5.38;;;3.30;;
46489;SDS011;32204;49.160;8.580;2023-02-26T02:09:06;6.07;;;2.85;;
46489;SDS011;32204;49.160;8.580;2023-02-26T02:11:33;4.80;;;2.40;;
46489;SDS011;32204;49.160;8.580;2023-02-26T02:14:02;3.60;;;2.28;;
46489;SDS011;32204;49.160;8.580;2023-02-26T02:16:45;5.05;;;2.40;;
46489;SDS011;32204;49.160;8.580;2023-02-26T02:19:32;3.50;;;2.50;;
46489;SDS011;32204;49.160;8.580;2023-02-26T02:22:26;5.65;;;2.65;;
46489;SDS011;32204;49.160;8.580;2023-02-26T02:25:25;6.25;;;2.95;;
46489;SDS011;32204;49.160;8.580;2023-02-26T02:31:07;4.10;;;2.58;;
46489;SDS011;32204;49.160;8.580;2023-02-26T02:33:47;4.50;;;2.05;;
46489;SDS011;32204;49.160;8.580;2023-02-26T02:36:25;7.28;;;2.58;;
46489;SDS011;32204;49.160;8.580;2023-02-26T02:39:00;3.90;;;2.20;;
46489;SDS011;32204;49.160;8.580;2023-02-26T02:41:39;4.38;;;2.20;;
46489;SDS011;32204;49.160;8.580;2023-02-26T02:44:09;4.22;;;2.80;;
46489;SDS011;32204;49.160;8.580;2023-02-26T02:46:39;4.05;;;2.50;;
46489;SDS011;32204;49.160;8.580;2023-02-26T02:49:15;3.22;;;1.95;;
46489;SDS011;32204;49.160;8.580;2023-02-26T02:51:48;3.67;;;2.33;;
46489;SDS011;32204;49.160;8.580;2023-02-26T02:54:19;6.28;;;2.50;;
46489;SDS011;32204;49.160;8.580;2023-02-26T02:57:00;4.15;;;2.85;;
46489;SDS011;32204;49.160;8.580;2023-02-26T02:59:37;5.00;;;3.38;;
46489;SDS011;32204;49.160;8.580;2023-02-26T03:04:37;10.40;;;5.00;;
46489;SDS011;32204;49.160;8.580;2023-02-26T03:07:04;7.75;;;4.15;;
46489;SDS011;32204;49.160;8.580;2023-02-26T03:09:30;7.90;;;3.38;;
46489;SDS011;32204;49.160;8.580;2023-02-26T03:11:56;6.13;;;2.88;;
46489;SDS011;32204;49.160;8.580;2023-02-26T03:14:22;6.93;;;3.50;;
46489;SDS011;32204;49.160;8.580;2023-02-26T03:22:38;4.30;;;2.80;;
46489;SDS011;32204;49.160;8.580;2023-02-26T03:25:13;4.93;;;3.05;;
46489;SDS011;32204;49.160;8.580;2023-02-26T03:28:06;5.90;;;3.20;;
46489;SDS011;32204;49.160;8.580;2023-02-26T03:30:46;4.68;;;3.50;;
46489;SDS011;32204;49.160;8.580;2023-02-26T03:33:29;7.10;;;2.90;;
46489;SDS011;32204;49.160;8.580;2023-02-26T03:36:03;6.93;;;2.85;;
46489;SDS011;32204;49.160;8.580;2023-02-26T03:41:34;7.60;;;3.03;;
46489;SDS011;32204;49.160;8.580;2023-02-26T03:44:19;6.82;;;3.10;;
46489;SDS011;32204;49.160;8.580;2023-02-26T03:47:02;7.07;;;4.25;;
46489;SDS011;32204;49.160;8.580;2023-02-26T03:49:32;11.40;;;5.55;;
46489;SDS011;32204;49.160;8.580;2023-02-26T03:52:04;10.07;;;5.18;;
46489;SDS011;32204;49.160;8.580;2023-02-26T03:54:36;8.15;;;5.25;;
46489;SDS011;32204;49.160;8.580;2023-02-26T03:57:06;7.63;;;4.40;;
46489;SDS011;32204;49.160;8.580;2023-02-26T03:59:32;7.45;;;3.95;;
46489;SDS011;32204;49.160;8.580;2023-02-26T04:04:41;9.50;;;3.17;;
46489;SDS011;32204;49.160;8.580;2023-02-26T04:07:09;9.57;;;3.10;;
46489;SDS011;32204;49.160;8.580;2023-02-26T04:09:37;4.97;;;3.17;;
46489;SDS011;32204;49.160;8.580;2023-02-26T04:12:08;5.78;;;2.90;;
46489;SDS011;32204;49.160;8.580;2023-02-26T04:14:34;7.30;;;3.72;;
46489;SDS011;32204;49.160;8.580;2023-02-26T04:17:00;6.13;;;3.78;;
46489;SDS011;32204;49.160;8.580;2023-02-26T04:19:25;6.10;;;3.80;;
46489;SDS011;32204;49.160;8.580;2023-02-26T04:21:51;6.20;;;4.07;;
46489;SDS011;32204;49.160;8.580;2023-02-26T04:24:16;9.05;;;4.95;;
46489;SDS011;32204;49.160;8.580;2023-02-26T04:26:42;9.80;;;4.90;;
46489;SDS011;32204;49.160;8.580;2023-02-26T04:29:07;5.75;;;3.60;;
46489;SDS011;32204;49.160;8.580;2023-02-26T04:31:33;6.25;;;3.17;;
46489;SDS011;32204;49.160;8.580;2023-02-26T04:33:58;7.47;;;2.95;;
46489;SDS011;32204;49.160;8.580;2023-02-26T04:36:24;6.30;;;2.97;;
46489;SDS011;32204;49.160;8.580;2023-02-26T04:38:50;4.50;;;2.90;;
46489;SDS011;32204;49.160;8.580;2023-02-26T04:41:15;4.57;;;3.20;;
46489;SDS011;32204;49.160;8.580;2023-02-26T04:43:41;6.07;;;3.10;;
46489;SDS011;32204;49.160;8.580;2023-02-26T04:46:06;8.50;;;3.35;;
46489;SDS011;32204;49.160;8.580;2023-02-26T04:48:32;6.20;;;3.30;;
46489;SDS011;32204;49.160;8.580;2023-02-26T04:50:57;5.63;;;3.30;;
46489;SDS011;32204;49.160;8.580;2023-02-26T04:53:23;5.38;;;4.13;;
46489;SDS011;32204;49.160;8.580;2023-02-26T04:55:49;6.65;;;3.03;;
46489;SDS011;32204;49.160;8.580;2023-02-26T04:58:14;3.67;;;2.60;;
46489;SDS011;32204;49.160;8.580;2023-02-26T05:00:40;7.15;;;2.92;;
46489;SDS011;32204;49.160;8.580;2023-02-26T05:03:06;5.60;;;3.28;;
46489;SDS011;32204;49.160;8.580;2023-02-26T05:05:33;3.45;;;2.78;;
46489;SDS011;32204;49.160;8.580;2023-02-26T05:07:59;6.38;;;3.60;;
46489;SDS011;32204;49.160;8.580;2023-02-26T05:10:25;3.55;;;2.63;;
46489;SDS011;32204;49.160;8.580;2023-02-26T05:12:51;8.48;;;2.78;;
46489;SDS011;32204;49.160;8.580;2023-02-26T05:15:19;5.90;;;3.25;;
46489;SDS011;32204;49.160;8.580;2023-02-26T05:17:45;4.28;;;2.33;;
46489;SDS011;32204;49.160;8.580;2023-02-26T05:20:11;5.57;;;2.75;;
46489;SDS011;32204;49.160;8.580;2023-02-26T05:22:37;6.45;;;2.80;;
46489;SDS011;32204;49.160;8.580;2023-02-26T05:25:03;6.65;;;3.15;;
46489;SDS011;32204;49.160;8.580;2023-02-26T05:27:30;4.32;;;3.10;;
46489;SDS011;32204;49.160;8.580;2023-02-26T05:29:56;5.38;;;2.97;;
46489;SDS011;32204;49.160;8.580;2023-02-26T05:32:21;10.13;;;2.90;;
46489;SDS011;32204;49.160;8.580;2023-02-26T05:34:47;7.22;;;3.28;;
46489;SDS011;32204;49.160;8.580;2023-02-26T05:37:12;4.05;;;3.20;;
46489;SDS011;32204;49.160;8.580;2023-02-26T05:39:38;6.15;;;3.13;;
46489;SDS011;32204;49.160;8.580;2023-02-26T05:42:05;5.65;;;2.78;;
46489;SDS011;32204;49.160;8.580;2023-02-26T05:44:32;6.18;;;3.53;;
46489;SDS011;32204;49.160;8.580;2023-02-26T05:46:59;5.30;;;3.00;;
46489;SDS011;32204;49.160;8.580;2023-02-26T05:49:25;6.22;;;3.92;;
46489;SDS011;32204;49.160;8.580;2023-02-26T05:51:51;11.45;;;4.22;;
46489;SDS011;32204;49.160;8.580;2023-02-26T05:54:17;22.38;;;13.27;;
46489;SDS011;32204;49.160;8.580;2023-02-26T05:56:42;14.15;;;7.45;;
46489;SDS011;32204;49.160;8.580;2023-02-26T05:59:08;14.05;;;8.40;;
46489;SDS011;32204;49.160;8.580;2023-02-26T06:01:34;6.55;;;4.40;;
46489;SDS011;32204;49.160;8.580;2023-02-26T06:04:01;6.47;;;5.35;;
46489;SDS011;32204;49.160;8.580;2023-02-26T06:06:27;8.20;;;3.83;;
46489;SDS011;32204;49.160;8.580;2023-02-26T06:08:53;7.18;;;4.53;;
46489;SDS011;32204;49.160;8.580;2023-02-26T06:11:18;6.65;;;3.35;;
46489;SDS011;32204;49.160;8.580;2023-02-26T06:13:44;6.57;;;3.53;;
46489;SDS011;32204;49.160;8.580;2023-02-26T06:16:10;8.63;;;3.65;;
46489;SDS011;32204;49.160;8.580;2023-02-26T06:18:35;10.40;;;3.70;;
46489;SDS011;32204;49.160;8.580;2023-02-26T06:21:01;5.90;;;3.25;;
46489;SDS011;32204;49.160;8.580;2023-02-26T06:23:27;4.88;;;3.03;;
46489;SDS011;32204;49.160;8.580;2023-02-26T06:25:53;8.13;;;3.05;;
46489;SDS011;32204;49.160;8.580;2023-02-26T06:28:19;14.38;;;9.00;;
46489;SDS011;32204;49.160;8.580;2023-02-26T06:30:45;84.82;;;39.28;;
46489;SDS011;32204;49.160;8.580;2023-02-26T06:33:11;84.20;;;38.78;;
46489;SDS011;32204;49.160;8.580;2023-02-26T06:35:36;13.73;;;7.38;;
46489;SDS011;32204;49.160;8.580;2023-02-26T06:38:02;8.27;;;3.30;;
46489;SDS011;32204;49.160;8.580;2023-02-26T06:40:28;6.78;;;4.00;;
46489;SDS011;32204;49.160;8.580;2023-02-26T06:42:55;5.90;;;3.08;;
46489;SDS011;32204;49.160;8.580;2023-02-26T06:45:21;5.68;;;3.72;;
46489;SDS011;32204;49.160;8.580;2023-02-26T06:47:47;6.30;;;3.75;;
46489;SDS011;32204;49.160;8.580;2023-02-26T06:50:12;7.65;;;3.13;;
46489;SDS011;32204;49.160;8.580;2023-02-26T06:52:39;6.45;;;3.22;;
46489;SDS011;32204;49.160;8.580;2023-02-26T06:55:04;5.00;;;3.10;;
46489;SDS011;32204;49.160;8.580;2023-02-26T06:57:30;7.05;;;4.90;;
46489;SDS011;32204;49.160;8.580;2023-02-26T06:59:56;8.57;;;3.40;;
46489;SDS011;32204;49.160;8.580;2023-02-26T07:02:21;7.18;;;3.15;;
46489;SDS011;32204;49.160;8.580;2023-02-26T07:04:48;6.05;;;3.13;;
46489;SDS011;32204;49.160;8.580;2023-02-26T07:07:13;4.82;;;2.90;;
46489;SDS011;32204;49.160;8.580;2023-02-26T07:09:39;5.45;;;3.15;;
46489;SDS011;32204;49.160;8.580;2023-02-26T07:12:05;5.82;;;2.78;;
46489;SDS011;32204;49.160;8.580;2023-02-26T07:14:32;4.13;;;2.67;;
46489;SDS011;32204;49.160;8.580;2023-02-26T07:16:58;8.55;;;3.63;;
46489;SDS011;32204;49.160;8.580;2023-02-26T07:19:24;5.72;;;2.97;;
46489;SDS011;32204;49.160;8.580;2023-02-26T07:21:50;7.35;;;2.47;;
46489;SDS011;32204;49.160;8.580;2023-02-26T07:24:16;7.28;;;2.58;;
46489;SDS011;32204;49.160;8.580;2023-02-26T07:26:41;5.88;;;2.40;;
46489;SDS011;32204;49.160;8.580;2023-02-26T07:29:07;5.03;;;2.67;;
46489;SDS011;32204;49.160;8.580;2023-02-26T07:31:32;9.35;;;2.58;;
46489;SDS011;32204;49.160;8.580;2023-02-26T07:33:58;7.13;;;2.67;;
46489;SDS011;32204;49.160;8.580;2023-02-26T07:36:24;4.55;;;2.67;;
46489;SDS011;32204;49.160;8.580;2023-02-26T07:38:49;3.20;;;1.95;;
46489;SDS011;32204;49.160;8.580;2023-02-26T07:41:15;3.88;;;1.85;;
46489;SDS011;32204;49.160;8.580;2023-02-26T07:43:40;6.75;;;2.47;;
46489;SDS011;32204;49.160;8.580;2023-02-26T07:46:06;5.85;;;2.28;;
46489;SDS011;32204;49.160;8.580;2023-02-26T07:48:32;5.43;;;1.98;;
46489;SDS011;32204;49.160;8.580;2023-02-26T07:50:59;4.63;;;2.45;;
46489;SDS011;32204;49.160;8.580;2023-02-26T07:53:24;6.18;;;1.92;;
46489;SDS011;32204;49.160;8.580;2023-02-26T07:55:50;3.97;;;1.80;;
46489;SDS011;32204;49.160;8.580;2023-02-26T07:58:19;4.13;;;1.80;;
46489;SDS011;32204;49.160;8.580;2023-02-26T08:00:44;2.92;;;1.60;;
46489;SDS011;32204;49.160;8.580;2023-02-26T08:03:10;3.80;;;2.00;;
46489;SDS011;32204;49.160;8.580;2023-02-26T08:05:36;10.52;;;2.03;;
46489;SDS011;32204;49.160;8.580;2023-02-26T08:08:01;3.80;;;2.25;;
46489;SDS011;32204;49.160;8.580;2023-02-26T08:10:27;2.97;;;1.73;;
46489;SDS011;32204;49.160;8.580;2023-02-26T08:12:54;6.70;;;2.13;;
46489;SDS011;32204;49.160;8.580;2023-02-26T08:15:19;11.18;;;2.30;;
46489;SDS011;32204;49.160;8.580;2023-02-26T08:17:45;5.88;;;2.08;;
46489;SDS011;32204;49.160;8.580;2023-02-26T08:20:11;6.13;;;2.50;;
46489;SDS011;32204;49.160;8.580;2023-02-26T08:22:39;4.43;;;1.80;;
46489;SDS011;32204;49.160;8.580;2023-02-26T08:25:05;5.43;;;1.60;;
46489;SDS011;32204;49.160;8.580;2023-02-26T08:27:31;4.43;;;2.15;;
46489;SDS011;32204;49.160;8.580;2023-02-26T08:29:57;6.95;;;2.08;;
46489;SDS011;32204;49.160;8.580;2023-02-26T08:32:23;2.58;;;1.25;;
46489;SDS011;32204;49.160;8.580;2023-02-26T08:34:50;3.83;;;1.80;;
46489;SDS011;32204;49.160;8.580;2023-02-26T08:37:16;3.92;;;1.80;;
46489;SDS011;32204;49.160;8.580;2023-02-26T08:39:42;2.88;;;1.58;;
46489;SDS011;32204;49.160;8.580;2023-02-26T08:42:08;7.57;;;2.28;;
46489;SDS011;32204;49.160;8.580;2023-02-26T08:44:34;4.50;;;1.60;;
46489;SDS011;32204;49.160;8.580;2023-02-26T08:46:59;3.60;;;2.13;;
46489;SDS011;32204;49.160;8.580;2023-02-26T08:49:25;4.07;;;1.63;;
46489;SDS011;32204;49.160;8.580;2023-02-26T08:51:50;4.45;;;1.50;;
46489;SDS011;32204;49.160;8.580;2023-02-26T08:54:16;4.18;;;1.92;;
46489;SDS011;32204;49.160;8.580;2023-02-26T08:56:41;4.20;;;1.48;;
46489;SDS011;32204;49.160;8.580;2023-02-26T08:59:07;2.40;;;1.33;;
46489;SDS011;32204;49.160;8.580;2023-02-26T09:01:35;4.77;;;1.50;;
46489;SDS011;32204;49.160;8.580;2023-02-26T09:04:00;4.03;;;1.40;;
46489;SDS011;32204;49.160;8.580;2023-02-26T09:06:26;5.20;;;1.60;;
46489;SDS011;32204;49.160;8.580;2023-02-26T09:08:52;5.53;;;1.50;;
46489;SDS011;32204;49.160;8.580;2023-02-26T09:11:17;6.22;;;1.60;;
46489;SDS011;32204;49.160;8.580;2023-02-26T09:13:43;7.43;;;2.55;;
46489;SDS011;32204;49.160;8.580;2023-02-26T09:16:09;2.38;;;1.17;;
46489;SDS011;32204;49.160;8.580;2023-02-26T09:18:34;1.60;;;1.25;;
46489;SDS011;32204;49.160;8.580;2023-02-26T09:21:00;2.67;;;1.48;;
46489;SDS011;32204;49.160;8.580;2023-02-26T09:23:27;4.05;;;1.75;;
46489;SDS011;32204;49.160;8.580;2023-02-26T09:25:53;3.15;;;1.30;;
46489;SDS011;32204;49.160;8.580;2023-02-26T09:28:20;1.65;;;1.30;;
46489;SDS011;32204;49.160;8.580;2023-02-26T09:30:49;4.53;;;1.27;;
46489;SDS011;32204;49.160;8.580;2023-02-26T09:33:19;2.63;;;1.38;;
46489;SDS011;32204;49.160;8.580;2023-02-26T09:35:48;1.83;;;1.05;;
46489;SDS011;32204;49.160;8.580;2023-02-26T09:38:14;8.43;;;2.05;;
46489;SDS011;32204;49.160;8.580;2023-02-26T09:41:01;6.25;;;1.55;;
46489;SDS011;32204;49.160;8.580;2023-02-26T09:49:04;3.10;;;1.50;;
46489;SDS011;32204;49.160;8.580;2023-02-26T09:51:47;3.67;;;1.50;;
46489;SDS011;32204;49.160;8.580;2023-02-26T09:54:21;2.67;;;1.15;;
46489;SDS011;32204;49.160;8.580;2023-02-26T09:56:50;3.90;;;1.10;;
46489;SDS011;32204;49.160;8.580;2023-02-26T09:59:17;3.75;;;1.55;;
46489;SDS011;32204;49.160;8.580;2023-02-26T10:01:50;3.60;;;1.83;;
46489;SDS011;32204;49.160;8.580;2023-02-26T10:09:45;4.15;;;1.13;;
46489;SDS011;32204;49.160;8.580;2023-02-26T10:20:22;1.75;;;1.10;;
46489;SDS011;32204;49.160;8.580;2023-02-26T10:23:02;3.57;;;1.53;;
46489;SDS011;32204;49.160;8.580;2023-02-26T10:25:41;1.98;;;1.40;;
46489;SDS011;32204;49.160;8.580;2023-02-26T10:28:28;1.75;;;0.80;;
46489;SDS011;32204;49.160;8.580;2023-02-26T10:31:03;1.92;;;1.10;;
46489;SDS011;32204;49.160;8.580;2023-02-26T10:33:37;1.30;;;1.10;;
46489;SDS011;32204;49.160;8.580;2023-02-26T10:36:27;3.33;;;1.20;;
46489;SDS011;32204;49.160;8.580;2023-02-26T10:39:02;3.58;;;1.02;;
46489;SDS011;32204;49.160;8.580;2023-02-26T10:41:39;2.47;;;1.20;;
46489;SDS011;32204;49.160;8.580;2023-02-26T10:46:53;3.15;;;1.80;;
46489;SDS011;32204;49.160;8.580;2023-02-26T10:51:52;1.05;;;0.90;;
46489;SDS011;32204;49.160;8.580;2023-02-26T10:54:23;2.47;;;1.13;;
46489;SDS011;32204;49.160;8.580;2023-02-26T10:56:55;1.20;;;1.05;;
46489;SDS011;32204;49.160;8.580;2023-02-26T10:59:21;1.30;;;0.90;;
46489;SDS011;32204;49.160;8.580;2023-02-26T11:01:47;2.13;;;0.85;;
46489;SDS011;32204;49.160;8.580;2023-02-26T11:04:16;1.92;;;1.10;;
46489;SDS011;32204;49.160;8.580;2023-02-26T11:06:48;1.52;;;1.00;;
46489;SDS011;32204;49.160;8.580;2023-02-26T11:09:33;1.63;;;0.90;;
46489;SDS011;32204;49.160;8.580;2023-02-26T11:14:31;1.38;;;0.90;;
46489;SDS011;32204;49.160;8.580;2023-02-26T11:16:59;1.63;;;1.08;;
46489;SDS011;32204;49.160;8.580;2023-02-26T11:19:32;2.50;;;0.90;;
46489;SDS011;32204;49.160;8.580;2023-02-26T11:22:01;1.13;;;0.95;;
46489;SDS011;32204;49.160;8.580;2023-02-26T11:29:28;2.45;;;1.00;;
46489;SDS011;32204;49.160;8.580;2023-02-26T11:32:04;0.75;;;0.75;;
46489;SDS011;32204;49.160;8.580;2023-02-26T11:34:31;1.75;;;1.40;;
46489;SDS011;32204;49.160;8.580;2023-02-26T11:36:57;0.60;;;0.60;;
46489;SDS011;32204;49.160;8.580;2023-02-26T11:39:25;1.43;;;1.00;;
46489;SDS011;32204;49.160;8.580;2023-02-26T11:41:56;1.48;;;1.20;;
46489;SDS011;32204;49.160;8.580;2023-02-26T11:44:29;1.17;;;1.08;;
46489;SDS011;32204;49.160;8.580;2023-02-26T11:47:02;1.00;;;0.90;;
46489;SDS011;32204;49.160;8.580;2023-02-26T11:49:40;0.63;;;0.60;;
46489;SDS011;32204;49.160;8.580;2023-02-26T11:52:15;1.17;;;0.60;;
46489;SDS011;32204;49.160;8.580;2023-02-26T11:54:48;0.70;;;0.70;;
46489;SDS011;32204;49.160;8.580;2023-02-26T11:59:50;1.02;;;0.63;;
46489;SDS011;32204;49.160;8.580;2023-02-26T12:02:19;1.85;;;0.80;;
46489;SDS011;32204;49.160;8.580;2023-02-26T12:04:48;1.10;;;1.10;;
46489;SDS011;32204;49.160;8.580;2023-02-26T12:07:19;1.80;;;1.17;;
46489;SDS011;32204;49.160;8.580;2023-02-26T12:09:46;3.45;;;1.65;;
46489;SDS011;32204;49.160;8.580;2023-02-26T12:12:15;2.40;;;1.10;;
46489;SDS011;32204;49.160;8.580;2023-02-26T12:15:06;0.77;;;0.68;;
46489;SDS011;32204;49.160;8.580;2023-02-26T12:36:51;1.23;;;0.88;;
46489;SDS011;32204;49.160;8.580;2023-02-26T12:48:09;4.18;;;1.52;;
46489;SDS011;32204;49.160;8.580;2023-02-26T12:50:51;2.47;;;1.35;;
46489;SDS011;32204;49.160;8.580;2023-02-26T13:01:44;0.60;;;0.60;;
46489;SDS011;32204;49.160;8.580;2023-02-26T13:07:15;1.23;;;0.82;;
46489;SDS011;32204;49.160;8.580;2023-02-26T13:21:00;1.90;;;1.00;;
46489;SDS011;32204;49.160;8.580;2023-02-26T13:23:36;0.68;;;0.68;;
46489;SDS011;32204;49.160;8.580;2023-02-26T13:26:07;1.17;;;0.60;;
46489;SDS011;32204;49.160;8.580;2023-02-26T13:28:57;2.65;;;1.50;;
46489;SDS011;32204;49.160;8.580;2023-02-26T13:31:49;1.45;;;1.23;;
46489;SDS011;32204;49.160;8.580;2023-02-26T13:34:48;2.70;;;0.70;;
46489;SDS011;32204;49.160;8.580;2023-02-26T13:37:28;2.22;;;1.17;;
46489;SDS011;32204;49.160;8.580;2023-02-26T13:53:32;0.95;;;0.60;;
46489;SDS011;32204;49.160;8.580;2023-02-26T13:56:41;0.85;;;0.82;;
46489;SDS011;32204;49.160;8.580;2023-02-26T13:59:02;0.82;;;0.50;;
46489;SDS011;32204;49.160;8.580;2023-02-26T14:01:31;0.50;;;0.50;;
46489;SDS011;32204;49.160;8.580;2023-02-26T14:06:46;1.27;;;0.80;;
46489;SDS011;32204;49.160;8.580;2023-02-26T14:09:36;1.27;;;0.95;;
46489;SDS011;32204;49.160;8.580;2023-02-26T14:12:03;0.77;;;0.60;;
46489;SDS011;32204;49.160;8.580;2023-02-26T14:20:11;2.15;;;1.48;;
46489;SDS011;32204;49.160;8.580;2023-02-26T14:22:46;1.75;;;0.80;;
46489;SDS011;32204;49.160;8.580;2023-02-26T14:25:33;0.80;;;0.80;;
46489;SDS011;32204;49.160;8.580;2023-02-26T14:30:52;1.30;;;0.65;;
46489;SDS011;32204;49.160;8.580;2023-02-26T14:33:33;0.65;;;0.50;;
46489;SDS011;32204;49.160;8.580;2023-02-26T14:36:26;1.58;;;1.02;;
46489;SDS011;32204;49.160;8.580;2023-02-26T14:39:22;2.13;;;1.35;;
46489;SDS011;32204;49.160;8.580;2023-02-26T14:42:00;1.30;;;1.10;;
46489;SDS011;32204;49.160;8.580;2023-02-26T14:44:30;2.17;;;1.48;;
46489;SDS011;32204;49.160;8.580;2023-02-26T14:47:02;1.23;;;0.90;;
46489;SDS011;32204;49.160;8.580;2023-02-26T14:49:33;0.75;;;0.60;;
46489;SDS011;32204;49.160;8.580;2023-02-26T15:00:44;2.58;;;0.95;;
46489;SDS011;32204;49.160;8.580;2023-02-26T15:03:17;1.17;;;1.08;;
46489;SDS011;32204;49.160;8.580;2023-02-26T15:11:37;0.68;;;0.60;;
46489;SDS011;32204;49.160;8.580;2023-02-26T15:14:27;0.60;;;0.60;;
46489;SDS011;32204;49.160;8.580;2023-02-26T15:17:03;1.27;;;1.00;;
46489;SDS011;32204;49.160;8.580;2023-02-26T15:19:38;1.98;;;1.70;;
46489;SDS011;32204;49.160;8.580;2023-02-26T15:25:10;0.52;;;0.52;;
46489;SDS011;32204;49.160;8.580;2023-02-26T15:27:47;1.42;;;0.50;;
46489;SDS011;32204;49.160;8.580;2023-02-26T15:30:13;2.03;;;0.60;;
46489;SDS011;32204;49.160;8.580;2023-02-26T15:32:40;4.28;;;3.85;;
46489;SDS011;32204;49.160;8.580;2023-02-26T15:35:09;2.80;;;2.42;;
46489;SDS011;32204;49.160;8.580;2023-02-26T15:37:46;0.73;;;0.73;;
46489;SDS011;32204;49.160;8.580;2023-02-26T15:40:17;1.27;;;1.17;;
46489;SDS011;32204;49.160;8.580;2023-02-26T15:42:44;3.45;;;1.75;;
46489;SDS011;32204;49.160;8.580;2023-02-26T15:45:20;1.23;;;0.73;;
46489;SDS011;32204;49.160;8.580;2023-02-26T15:47:55;1.02;;;0.73;;
46489;SDS011;32204;49.160;8.580;2023-02-26T15:50:24;3.80;;;3.00;;
46489;SDS011;32204;49.160;8.580;2023-02-26T15:52:54;0.88;;;0.50;;
46489;SDS011;32204;49.160;8.580;2023-02-26T15:55:23;6.45;;;5.40;;
46489;SDS011;32204;49.160;8.580;2023-02-26T15:57:50;2.80;;;1.65;;
46489;SDS011;32204;49.160;8.580;2023-02-26T16:00:18;2.15;;;0.95;;
46489;SDS011;32204;49.160;8.580;2023-02-26T16:02:54;0.80;;;0.70;;
46489;SDS011;32204;49.160;8.580;2023-02-26T16:05:26;2.67;;;0.60;;
46489;SDS011;32204;49.160;8.580;2023-02-26T16:07:53;1.77;;;0.93;;
46489;SDS011;32204;49.160;8.580;2023-02-26T16:13:05;1.20;;;0.80;;
46489;SDS011;32204;49.160;8.580;2023-02-26T16:15:35;0.70;;;0.70;;
46489;SDS011;32204;49.160;8.580;2023-02-26T16:18:04;1.58;;;0.90;;
46489;SDS011;32204;49.160;8.580;2023-02-26T16:20:41;2.28;;;0.98;;
46489;SDS011;32204;49.160;8.580;2023-02-26T16:23:11;1.00;;;0.85;;
46489;SDS011;32204;49.160;8.580;2023-02-26T16:28:23;1.15;;;1.05;;
46489;SDS011;32204;49.160;8.580;2023-02-26T16:30:54;0.80;;;0.70;;
46489;SDS011;32204;49.160;8.580;2023-02-26T16:33:23;0.73;;;0.70;;
46489;SDS011;32204;49.160;8.580;2023-02-26T16:35:53;3.53;;;1.45;;
46489;SDS011;32204;49.160;8.580;2023-02-26T16:38:31;0.65;;;0.63;;
46489;SDS011;32204;49.160;8.580;2023-02-26T16:41:08;1.88;;;1.08;;
46489;SDS011;32204;49.160;8.580;2023-02-26T16:46:32;3.67;;;1.40;;
46489;SDS011;32204;49.160;8.580;2023-02-26T16:49:22;1.20;;;0.80;;
46489;SDS011;32204;49.160;8.580;2023-02-26T16:51:51;1.60;;;0.88;;
46489;SDS011;32204;49.160;8.580;2023-02-26T16:54:21;1.77;;;0.93;;
46489;SDS011;32204;49.160;8.580;2023-02-26T16:56:56;2.13;;;1.20;;
46489;SDS011;32204;49.160;8.580;2023-02-26T16:59:34;1.23;;;0.98;;
46489;SDS011;32204;49.160;8.580;2023-02-26T17:02:12;2.00;;;1.85;;
46489;SDS011;32204;49.160;8.580;2023-02-26T17:04:43;1.85;;;1.20;;
46489;SDS011;32204;49.160;8.580;2023-02-26T17:07:29;2.15;;;1.25;;
46489;SDS011;32204;49.160;8.580;2023-02-26T17:10:06;2.20;;;1.40;;
46489;SDS011;32204;49.160;8.580;2023-02-26T17:12:48;1.08;;;0.95;;
46489;SDS011;32204;49.160;8.580;2023-02-26T17:15:19;3.72;;;1.30;;
46489;SDS011;32204;49.160;8.580;2023-02-26T17:17:52;1.50;;;0.75;;
46489;SDS011;32204;49.160;8.580;2023-02-26T17:20:21;1.42;;;1.05;;
46489;SDS011;32204;49.160;8.580;2023-02-26T17:22:47;1.60;;;1.20;;
46489;SDS011;32204;49.160;8.580;2023-02-26T17:25:15;3.28;;;1.30;;
46489;SDS011;32204;49.160;8.580;2023-02-26T17:27:42;3.08;;;1.48;;
46489;SDS011;32204;49.160;8.580;2023-02-26T17:30:11;1.40;;;1.00;;
46489;SDS011;32204;49.160;8.580;2023-02-26T17:32:40;3.08;;;1.42;;
46489;SDS011;32204;49.160;8.580;2023-02-26T17:35:06;3.17;;;1.38;;
46489;SDS011;32204;49.160;8.580;2023-02-26T17:37:33;3.65;;;1.20;;
46489;SDS011;32204;49.160;8.580;2023-02-26T17:40:00;2.25;;;1.50;;
46489;SDS011;32204;49.160;8.580;2023-02-26T17:42:27;2.03;;;1.00;;
46489;SDS011;32204;49.160;8.580;2023-02-26T17:44:53;2.13;;;0.90;;
46489;SDS011;32204;49.160;8.580;2023-02-26T17:47:24;1.17;;;0.63;;
46489;SDS011;32204;49.160;8.580;2023-02-26T17:49:50;1.73;;;0.70;;
46489;SDS011;32204;49.160;8.580;2023-02-26T17:52:17;1.95;;;0.90;;
46489;SDS011;32204;49.160;8.580;2023-02-26T17:54:43;1.85;;;0.90;;